Time;durP1;ratioP1;P1;durP2;ratioP2;P2;SDS_P1;SDS_P2;PMS_P1;PMS_P2;Temp;Humidity;BMP_temperature;BMP_pressure;BME280_temperature;BME280_humidity;BME280_pressure;Samples;Min_cycle;Max_cycle;Signal;HPM_P1;HPM_P2
2020/12/09 00:00:00;;;;;;;11.80;9.70;;;21.20;42.90;;;;;;5106958;28;20874;-72
2020/12/09 00:02:25;;;;;;;14.33;10.80;;;21.20;42.90;;;;;;5108103;28;20408;-71
2020/12/09 00:04:51;;;;;;;11.53;10.20;;;21.20;42.80;;;;;;5106743;28;20208;-71
2020/12/09 00:07:17;;;;;;;11.23;10.03;;;21.10;42.80;;;;;;5108000;28;20264;-73
2020/12/09 00:09:42;;;;;;;10.60;9.43;;;21.10;42.70;;;;;;5108157;28;20263;-72
2020/12/09 00:12:08;;;;;;;11.13;9.97;;;21.10;42.40;;;;;;5107964;28;20168;-71
2020/12/09 00:14:34;;;;;;;11.60;10.30;;;21.20;42.40;;;;;;5107822;28;20186;-72
2020/12/09 00:16:59;;;;;;;12.70;10.70;;;21.20;42.10;;;;;;5107777;28;20523;-71
2020/12/09 00:19:25;;;;;;;10.40;9.23;;;21.20;42.10;;;;;;5107629;28;20196;-70
2020/12/09 00:21:50;;;;;;;10.60;9.50;;;21.20;41.90;;;;;;5107577;28;20171;-71
2020/12/09 00:24:16;;;;;;;10.90;9.80;;;21.20;41.70;;;;;;5107532;28;20258;-71
2020/12/09 00:26:42;;;;;;;10.43;9.30;;;21.30;41.70;;;;;;5107654;28;20207;-72
2020/12/09 00:29:07;;;;;;;11.00;9.90;;;21.20;41.40;;;;;;5107713;28;20180;-71
2020/12/09 00:31:34;;;;;;;12.17;9.90;;;21.20;41.30;;;;;;5107535;28;20955;-71
2020/12/09 00:34:01;;;;;;;11.33;9.47;;;21.20;41.30;;;;;;5106232;28;20596;-72
2020/12/09 00:36:27;;;;;;;11.23;10.13;;;21.20;41.20;;;;;;5096533;28;20412;-73
2020/12/09 00:38:54;;;;;;;11.77;9.77;;;21.10;41.20;;;;;;5092917;28;20770;-72
2020/12/09 00:41:29;;;;;;;10.40;9.40;;;21.10;41.10;;;;;;5093819;28;20213;-73
2020/12/09 00:43:56;;;;;;;10.73;9.73;;;21.10;41.10;;;;;;5093789;28;20547;-72
2020/12/09 00:46:24;;;;;;;11.07;9.87;;;21.10;41.10;;;;;;5093784;28;20930;-71
2020/12/09 00:48:49;;;;;;;9.83;8.80;;;21.00;40.90;;;;;;5093738;28;20915;-71
2020/12/09 00:51:18;;;;;;;11.50;9.63;;;21.00;40.90;;;;;;5093547;28;20417;-71
2020/12/09 00:53:44;;;;;;;9.53;8.50;;;21.00;40.90;;;;;;5093656;28;20164;-73
2020/12/09 00:56:10;;;;;;;11.00;9.90;;;20.90;40.80;;;;;;5092198;28;20417;-71
2020/12/09 00:58:36;;;;;;;10.03;9.03;;;20.90;40.80;;;;;;5093419;28;20433;-72
2020/12/09 01:01:04;;;;;;;10.60;9.60;;;20.90;40.80;;;;;;5093301;28;20421;-73
2020/12/09 01:03:30;;;;;;;9.27;8.37;;;20.90;40.80;;;;;;5093209;28;20466;-73
2020/12/09 01:05:56;;;;;;;10.90;8.93;;;20.80;40.70;;;;;;5093353;28;20436;-72
2020/12/09 01:08:22;;;;;;;10.77;9.10;;;20.80;40.70;;;;;;5093316;28;20768;-73
2020/12/09 01:10:47;;;;;;;9.87;8.87;;;20.80;40.60;;;;;;5093116;28;20184;-72
2020/12/09 01:13:15;;;;;;;9.37;8.40;;;20.70;40.50;;;;;;5091940;28;20180;-72
2020/12/09 01:15:41;;;;;;;8.70;7.80;;;20.70;40.50;;;;;;5093208;28;20176;-72
2020/12/09 01:18:07;;;;;;;10.10;8.90;;;20.70;40.50;;;;;;5092992;28;20454;-72
2020/12/09 01:20:33;;;;;;;9.70;8.37;;;20.70;40.50;;;;;;5092806;28;20412;-72
2020/12/09 01:22:58;;;;;;;9.30;8.30;;;20.60;40.40;;;;;;5093069;28;20245;-72
2020/12/09 01:25:24;;;;;;;9.10;8.20;;;20.60;40.40;;;;;;5092713;28;20566;-72
2020/12/09 01:27:50;;;;;;;9.50;8.50;;;20.50;40.30;;;;;;5092818;28;20169;-72
2020/12/09 01:30:15;;;;;;;8.53;7.73;;;20.50;40.30;;;;;;5093108;28;20655;-72
2020/12/09 01:32:41;;;;;;;8.93;8.00;;;20.50;40.20;;;;;;5092771;28;20180;-73
2020/12/09 01:35:07;;;;;;;7.70;6.93;;;20.50;40.30;;;;;;5092658;28;20643;-71
2020/12/09 01:37:32;;;;;;;8.53;7.50;;;20.40;40.20;;;;;;5092997;28;20181;-71
2020/12/09 01:39:58;;;;;;;8.07;7.33;;;20.40;40.30;;;;;;5091785;28;20432;-71
2020/12/09 01:42:24;;;;;;;8.57;6.90;;;20.40;40.20;;;;;;5092565;28;20219;-72
2020/12/09 01:44:49;;;;;;;7.70;7.07;;;20.30;40.30;;;;;;5091288;28;20238;-72
2020/12/09 01:47:15;;;;;;;7.40;6.77;;;20.30;40.20;;;;;;5091690;28;20649;-70
2020/12/09 01:49:41;;;;;;;7.00;6.40;;;20.30;40.20;;;;;;5093012;28;20191;-70
2020/12/09 01:52:06;;;;;;;8.97;8.07;;;20.30;40.30;;;;;;5092294;28;20697;-71
2020/12/09 01:54:32;;;;;;;8.53;6.70;;;20.30;40.20;;;;;;5092691;28;20534;-70
2020/12/09 01:57:08;;;;;;;8.13;7.33;;;20.20;40.90;;;;;;5092288;28;20647;-71
2020/12/09 01:59:35;;;;;;;7.60;6.90;;;20.20;40.20;;;;;;5092363;28;20411;-70
2020/12/09 02:02:01;;;;;;;7.57;6.80;;;20.20;40.20;;;;;;5092318;28;20455;-71
2020/12/09 02:04:28;;;;;;;7.70;6.80;;;20.20;40.20;;;;;;5092108;28;20504;-72
2020/12/09 02:06:54;;;;;;;7.07;6.40;;;20.20;40.20;;;;;;5092001;28;20184;-71
2020/12/09 02:09:21;;;;;;;7.40;6.57;;;20.10;40.10;;;;;;5092173;28;20427;-72
2020/12/09 02:11:47;;;;;;;7.80;7.07;;;20.10;40.10;;;;;;5091965;28;20405;-72
2020/12/09 02:14:13;;;;;;;7.87;7.03;;;20.10;40.10;;;;;;5090893;28;20413;-71
2020/12/09 02:16:39;;;;;;;7.67;6.90;;;20.10;40.10;;;;;;5092030;28;20408;-72
2020/12/09 02:19:05;;;;;;;7.20;6.50;;;20.10;40.10;;;;;;5091717;28;20422;-72
2020/12/09 02:21:35;;;;;;;7.60;6.90;;;20.00;40.10;;;;;;5091727;28;20526;-72
2020/12/09 02:24:01;;;;;;;8.90;7.33;;;20.00;40.00;;;;;;5091624;28;20554;-72
2020/12/09 02:26:28;;;;;;;7.50;6.70;;;20.00;40.80;;;;;;5091869;28;20476;-71
2020/12/09 02:28:54;;;;;;;9.97;6.90;;;20.00;40.00;;;;;;5091541;28;20507;-72
2020/12/09 02:31:20;;;;;;;7.50;6.80;;;20.00;40.00;;;;;;5090730;28;20440;-71
2020/12/09 02:33:46;;;;;;;6.87;6.27;;;19.90;40.00;;;;;;5091653;28;20455;-71
2020/12/09 02:36:11;;;;;;;6.90;6.13;;;19.90;40.00;;;;;;5090162;28;20612;-72
2020/12/09 02:38:37;;;;;;;6.20;5.60;;;20.00;40.20;;;;;;5091565;28;20583;-72
2020/12/09 02:41:03;;;;;;;6.73;6.07;;;20.00;40.80;;;;;;5091509;28;20582;-72
2020/12/09 02:43:29;;;;;;;7.13;6.43;;;20.10;40.10;;;;;;5091343;28;20248;-72
2020/12/09 02:45:54;;;;;;;6.43;5.83;;;20.10;40.20;;;;;;5091437;28;20702;-71
2020/12/09 02:48:20;;;;;;;5.67;5.00;;;20.10;40.10;;;;;;5091686;28;20409;-71
2020/12/09 02:50:46;;;;;;;7.10;6.40;;;20.20;40.10;;;;;;5091510;28;20649;-72
2020/12/09 02:53:11;;;;;;;7.27;5.70;;;20.20;39.90;;;;;;5091313;28;20171;-71
2020/12/09 02:55:37;;;;;;;5.90;5.40;;;20.30;39.80;;;;;;5089930;28;20537;-72
2020/12/09 02:58:02;;;;;;;5.90;5.30;;;20.30;39.70;;;;;;5091126;28;20658;-71
2020/12/09 03:00:28;;;;;;;6.10;5.53;;;20.30;39.60;;;;;;5089698;28;20214;-70
2020/12/09 03:02:54;;;;;;;5.30;4.80;;;20.30;39.60;;;;;;5091155;28;20210;-71
2020/12/09 03:05:19;;;;;;;6.27;5.67;;;20.30;39.50;;;;;;5091071;28;20200;-71
2020/12/09 03:07:45;;;;;;;6.10;5.50;;;20.30;39.50;;;;;;5091242;28;20210;-72
2020/12/09 03:10:11;;;;;;;5.90;5.30;;;20.30;39.40;;;;;;5091113;28;20176;-72
2020/12/09 03:12:36;;;;;;;6.07;5.53;;;20.30;39.40;;;;;;5091088;28;20164;-72
2020/12/09 03:15:03;;;;;;;5.27;4.77;;;20.30;39.40;;;;;;5091040;28;20203;-70
2020/12/09 03:17:29;;;;;;;6.30;5.53;;;20.30;39.30;;;;;;5089775;28;20252;-72
2020/12/09 03:19:55;;;;;;;5.93;5.33;;;20.30;39.30;;;;;;5090734;28;21059;-72
2020/12/09 03:22:21;;;;;;;6.13;5.43;;;20.30;39.30;;;;;;5091011;28;20160;-71
2020/12/09 03:24:47;;;;;;;5.63;5.13;;;20.30;39.30;;;;;;5090762;28;20477;-72
2020/12/09 03:27:13;;;;;;;5.33;4.83;;;20.30;39.30;;;;;;5090944;28;20176;-71
2020/12/09 03:29:39;;;;;;;5.50;5.00;;;20.30;40.00;;;;;;5090983;28;20589;-71
2020/12/09 03:32:05;;;;;;;5.17;4.77;;;20.30;39.30;;;;;;5089530;28;20509;-71
2020/12/09 03:34:31;;;;;;;5.17;4.67;;;20.20;39.20;;;;;;5090668;28;20208;-71
2020/12/09 03:36:56;;;;;;;5.43;4.93;;;20.20;40.00;;;;;;5090857;28;20420;-71
2020/12/09 03:39:22;;;;;;;4.77;4.37;;;20.20;39.20;;;;;;5089766;28;20638;-70
2020/12/09 03:41:47;;;;;;;6.17;4.90;;;20.20;39.20;;;;;;5090718;28;20225;-71
2020/12/09 03:44:13;;;;;;;5.60;5.07;;;20.20;39.20;;;;;;5090673;28;20237;-71
2020/12/09 03:46:39;;;;;;;5.43;4.93;;;20.20;39.30;;;;;;5090822;28;20212;-72
2020/12/09 03:49:04;;;;;;;4.93;4.47;;;20.20;39.20;;;;;;5090523;28;20186;-72
2020/12/09 03:51:30;;;;;;;6.07;5.17;;;20.10;39.20;;;;;;5090644;28;20195;-72
2020/12/09 03:53:56;;;;;;;5.20;4.40;;;20.10;39.20;;;;;;5090583;28;20180;-71
2020/12/09 03:56:21;;;;;;;5.43;4.93;;;20.10;39.20;;;;;;5089350;28;20673;-71
2020/12/09 03:58:47;;;;;;;4.90;4.20;;;20.10;39.20;;;;;;5090564;28;20695;-71
2020/12/09 04:01:13;;;;;;;4.73;4.13;;;20.00;40.20;;;;;;5090564;28;20302;-72
2020/12/09 04:03:38;;;;;;;4.63;4.20;;;20.00;40.50;;;;;;5090389;28;20180;-72
2020/12/09 04:06:04;;;;;;;4.60;4.20;;;20.00;40.60;;;;;;5090352;28;20653;-70
2020/12/09 04:08:29;;;;;;;5.20;4.70;;;20.00;40.50;;;;;;5090497;28;20203;-71
2020/12/09 04:10:55;;;;;;;5.07;4.60;;;20.00;40.40;;;;;;5091442;28;20179;-72
2020/12/09 04:13:21;;;;;;;4.43;4.03;;;20.00;40.30;;;;;;5094300;28;20190;-71
2020/12/09 04:15:46;;;;;;;5.73;4.20;;;20.00;40.20;;;;;;5094446;28;20538;-72
2020/12/09 04:18:12;;;;;;;4.70;4.30;;;20.00;40.10;;;;;;5092822;28;20583;-72
2020/12/09 04:20:38;;;;;;;4.60;4.10;;;20.00;40.00;;;;;;5092803;28;20205;-71
2020/12/09 04:23:03;;;;;;;4.73;4.27;;;19.90;40.00;;;;;;5094169;28;20178;-71
2020/12/09 04:25:29;;;;;;;5.30;4.37;;;19.90;39.90;;;;;;5093928;28;20235;-72
2020/12/09 04:27:55;;;;;;;5.00;4.60;;;19.90;39.80;;;;;;5094167;28;20420;-72
2020/12/09 04:30:20;;;;;;;5.73;5.00;;;19.90;39.80;;;;;;5094109;28;20586;-73
2020/12/09 04:32:46;;;;;;;5.20;4.70;;;19.90;39.80;;;;;;5093919;28;20191;-72
2020/12/09 04:35:12;;;;;;;5.70;5.00;;;19.90;39.80;;;;;;5091936;28;20669;-72
2020/12/09 04:37:39;;;;;;;4.43;4.03;;;19.90;39.80;;;;;;5093381;28;20403;-70
2020/12/09 04:40:05;;;;;;;4.13;3.73;;;19.90;39.80;;;;;;5109506;28;20274;-73
2020/12/09 04:42:31;;;;;;;4.87;4.07;;;19.90;39.80;;;;;;5093392;28;20411;-74
2020/12/09 04:44:57;;;;;;;4.57;4.17;;;20.00;39.80;;;;;;5093221;28;20463;-74
2020/12/09 04:47:32;;;;;;;5.07;4.40;;;20.00;39.80;;;;;;5093474;28;20419;-73
2020/12/09 04:50:10;;;;;;;5.10;4.20;;;20.00;39.70;;;;;;5093170;28;20415;-74
2020/12/09 04:53:06;;;;;;;4.23;3.83;;;20.10;39.60;;;;;;5093131;28;20399;-74
2020/12/09 04:55:32;;;;;;;5.57;5.00;;;20.10;39.50;;;;;;5093190;28;20397;-74
2020/12/09 04:58:02;;;;;;;5.17;3.90;;;20.20;39.40;;;;;;5122631;27;20459;-75
2020/12/09 05:00:30;;;;;;;4.83;4.40;;;20.20;39.20;;;;;;5113081;28;20490;-72
2020/12/09 05:03:13;;;;;;;5.10;4.60;;;20.20;39.10;;;;;;5129222;27;20424;-73
2020/12/09 05:05:39;;;;;;;4.77;4.10;;;20.20;39.00;;;;;;5113315;28;20463;-72
2020/12/09 05:08:11;;;;;;;5.30;4.80;;;20.20;39.00;;;;;;5113530;28;20415;-74
2020/12/09 05:10:45;;;;;;;4.43;4.00;;;20.20;39.20;;;;;;5129346;27;20187;-73
2020/12/09 05:13:19;;;;;;;6.23;4.60;;;20.20;39.10;;;;;;5113489;28;20404;-73
2020/12/09 05:15:47;;;;;;;4.70;4.30;;;20.30;39.00;;;;;;5113237;28;20852;-73
2020/12/09 05:18:16;;;;;;;5.83;5.30;;;20.30;39.10;;;;;;5100091;28;20923;-73
2020/12/09 05:20:42;;;;;;;9.63;6.17;;;20.30;39.20;;;;;;5092616;28;20423;-73
2020/12/09 05:23:09;;;;;;;6.63;5.40;;;20.30;38.80;;;;;;5091522;28;20414;-74
2020/12/09 05:25:37;;;;;;;14.00;8.50;;;20.40;39.10;;;;;;5089684;28;20274;-73
2020/12/09 05:28:04;;;;;;;10.40;7.30;;;20.40;38.70;;;;;;5090314;28;20865;-73
2020/12/09 05:30:48;;;;;;;8.30;6.53;;;20.40;39.70;;;;;;5088996;28;20945;-74
2020/12/09 05:33:19;;;;;;;10.50;7.00;;;20.40;38.60;;;;;;5091397;28;20443;-74
2020/12/09 05:35:58;;;;;;;8.87;6.20;;;20.40;38.70;;;;;;5091446;28;20471;-73
2020/12/09 05:38:23;;;;;;;10.50;7.63;;;20.50;38.90;;;;;;5091301;28;20845;-73
2020/12/09 05:40:49;;;;;;;11.70;7.03;;;20.50;38.70;;;;;;5091455;28;20452;-73
2020/12/09 05:43:16;;;;;;;10.63;7.00;;;20.50;38.70;;;;;;5091235;28;20646;-74
2020/12/09 05:45:43;;;;;;;8.27;6.73;;;20.50;38.60;;;;;;5091515;28;20227;-73
2020/12/09 05:48:12;;;;;;;7.50;5.77;;;20.50;38.40;;;;;;5090959;28;20447;-74
2020/12/09 05:50:49;;;;;;;9.50;6.23;;;20.50;38.60;;;;;;5091368;28;20417;-73
2020/12/09 05:53:21;;;;;;;8.33;5.93;;;20.50;38.40;;;;;;5090587;28;20408;-73
2020/12/09 05:55:47;;;;;;;7.93;6.63;;;20.50;38.30;;;;;;5090360;28;20429;-73
2020/12/09 05:58:28;;;;;;;11.07;8.10;;;20.50;38.20;;;;;;5089815;28;20487;-72
2020/12/09 06:01:21;;;;;;;14.00;9.00;;;20.50;38.30;;;;;;5090586;28;20428;-72
2020/12/09 06:03:53;;;;;;;16.43;9.23;;;20.50;38.20;;;;;;5088648;28;20508;-72
2020/12/09 06:06:18;;;;;;;10.07;7.70;;;20.50;38.20;;;;;;5090752;28;21040;-72
2020/12/09 06:08:55;;;;;;;10.33;8.23;;;20.40;38.20;;;;;;5090320;28;20421;-73
2020/12/09 06:11:22;;;;;;;12.63;8.67;;;20.40;38.20;;;;;;5090580;28;20183;-73
2020/12/09 06:13:48;;;;;;;11.43;8.70;;;20.40;38.20;;;;;;5089476;28;20763;-73
2020/12/09 06:16:17;;;;;;;12.90;9.17;;;20.40;38.20;;;;;;5090566;28;20787;-73
2020/12/09 06:18:45;;;;;;;12.00;10.70;;;20.40;38.20;;;;;;5090547;28;20409;-73
2020/12/09 06:21:11;;;;;;;11.63;10.17;;;20.40;38.20;;;;;;5090351;28;21012;-73
2020/12/09 06:23:38;;;;;;;12.03;10.57;;;20.30;38.20;;;;;;5090387;28;20918;-72
2020/12/09 06:26:04;;;;;;;12.67;11.47;;;20.30;38.20;;;;;;5090325;28;20428;-72
2020/12/09 06:28:32;;;;;;;12.80;11.37;;;20.30;38.20;;;;;;5090721;28;20409;-72
2020/12/09 06:31:13;;;;;;;12.43;11.07;;;20.30;38.20;;;;;;5090261;28;20470;-72
2020/12/09 06:33:42;;;;;;;12.57;11.27;;;20.30;38.20;;;;;;5088580;28;20435;-72
2020/12/09 06:36:28;;;;;;;13.67;11.83;;;20.20;38.20;;;;;;5090086;28;20815;-71
2020/12/09 06:39:11;;;;;;;12.27;10.33;;;20.20;38.20;;;;;;5090223;28;20431;-72
2020/12/09 06:41:58;;;;;;;11.90;10.67;;;20.20;38.20;;;;;;5086322;28;20406;-72
2020/12/09 06:44:29;;;;;;;11.90;10.70;;;20.20;38.20;;;;;;5085364;28;20466;-71
2020/12/09 06:46:55;;;;;;;11.93;10.67;;;20.20;38.30;;;;;;5088997;28;20434;-73
2020/12/09 06:49:37;;;;;;;13.63;10.73;;;20.20;39.10;;;;;;5089948;28;20899;-73
2020/12/09 06:52:09;;;;;;;12.80;9.80;;;20.20;39.10;;;;;;5088301;28;20511;-73
2020/12/09 06:54:41;;;;;;;14.17;10.97;;;20.20;39.40;;;;;;5075984;28;20433;-72
2020/12/09 06:57:22;;;;;;;12.80;9.00;;;20.20;39.30;;;;;;5085522;28;20967;-72
2020/12/09 06:59:49;;;;;;;10.27;9.30;;;20.20;39.30;;;;;;5087209;28;20914;-71
2020/12/09 07:02:29;;;;;;;10.83;9.73;;;20.20;39.30;;;;;;5087738;28;21059;-70
2020/12/09 07:04:55;;;;;;;10.10;8.97;;;20.20;39.30;;;;;;5087533;28;20604;-70
2020/12/09 07:07:35;;;;;;;13.47;9.80;;;20.20;39.30;;;;;;5085676;28;20516;-71
2020/12/09 07:10:05;;;;;;;10.70;8.60;;;20.20;39.40;;;;;;5086540;28;20182;-71
2020/12/09 07:12:31;;;;;;;9.33;8.30;;;20.20;39.40;;;;;;5086134;28;20907;-71
2020/12/09 07:14:58;;;;;;;10.40;9.30;;;20.20;39.50;;;;;;5085788;28;20481;-71
2020/12/09 07:17:28;;;;;;;9.07;8.17;;;20.20;39.50;;;;;;5084830;28;20227;-71
2020/12/09 07:19:57;;;;;;;9.67;8.00;;;20.30;39.60;;;;;;5086697;28;20420;-71
2020/12/09 07:23:58;;;;;;;11.03;7.80;;;20.40;39.10;;;;;;5144444;27;20538;-69
2020/12/09 07:26:24;;;;;;;17.07;11.43;;;20.50;41.80;;;;;;5124473;27;20419;-69
2020/12/09 07:28:52;;;;;;;12.57;9.70;;;20.70;42.10;;;;;;5124733;28;20427;-71
2020/12/09 07:31:18;;;;;;;11.73;9.43;;;20.90;42.00;;;;;;5125513;27;20189;-69
2020/12/09 07:33:44;;;;;;;13.00;9.90;;;21.10;41.80;;;;;;5123851;28;20423;-69
2020/12/09 07:36:11;;;;;;;10.30;9.40;;;21.30;41.80;;;;;;5125667;28;20291;-70
2020/12/09 07:38:42;;;;;;;11.40;9.13;;;21.50;41.70;;;;;;5124034;28;20183;-70
2020/12/09 07:41:07;;;;;;;13.70;9.70;;;21.70;41.40;;;;;;5125409;28;20431;-71
2020/12/09 07:43:33;;;;;;;9.57;8.13;;;21.90;41.20;;;;;;5124995;27;20495;-69
2020/12/09 07:46:03;;;;;;;9.50;8.40;;;22.10;41.10;;;;;;5125211;28;20259;-70
2020/12/09 07:48:30;;;;;;;8.63;7.73;;;22.20;41.10;;;;;;5125581;27;20233;-71
2020/12/09 07:50:56;;;;;;;9.60;8.60;;;22.30;40.80;;;;;;5125337;27;21100;-71
2020/12/09 07:53:22;;;;;;;10.77;9.00;;;22.50;40.80;;;;;;5124648;27;20451;-71
2020/12/09 07:55:48;;;;;;;8.40;7.60;;;22.60;40.90;;;;;;5125249;27;20651;-67
2020/12/09 07:58:16;;;;;;;9.70;8.13;;;22.70;40.50;;;;;;5109867;27;20455;-68
2020/12/09 08:00:44;;;;;;;9.47;8.57;;;22.80;40.40;;;;;;5097917;28;20177;-70
2020/12/09 08:03:21;;;;;;;8.17;7.37;;;23.00;40.60;;;;;;5083523;28;20473;-69
2020/12/09 08:05:48;;;;;;;8.50;7.20;;;23.30;40.40;;;;;;5083541;28;20472;-67
2020/12/09 08:08:15;;;;;;;8.07;6.97;;;23.80;39.90;;;;;;5080859;28;21008;-68
2020/12/09 08:10:44;;;;;;;7.83;5.87;;;24.30;39.50;;;;;;5083792;28;21011;-68
2020/12/09 08:13:23;;;;;;;8.47;6.50;;;24.80;38.90;;;;;;5084648;28;20504;-68
2020/12/09 08:16:02;;;;;;;9.60;6.33;;;25.30;39.20;;;;;;5083373;28;20409;-67
2020/12/09 08:18:28;;;;;;;7.57;6.10;;;25.60;38.20;;;;;;5081392;28;20792;-70
2020/12/09 08:20:54;;;;;;;7.47;6.00;;;25.70;38.20;;;;;;5082689;28;20420;-70
2020/12/09 08:23:22;;;;;;;7.77;6.60;;;25.80;38.10;;;;;;5084131;28;20678;-70
2020/12/09 08:25:52;;;;;;;7.53;6.17;;;25.80;37.40;;;;;;5083896;28;20420;-68
2020/12/09 08:28:23;;;;;;;6.83;6.10;;;25.80;38.20;;;;;;5083464;28;20895;-69
2020/12/09 08:30:48;;;;;;;8.83;6.17;;;25.80;37.70;;;;;;5083655;28;20424;-66
2020/12/09 08:33:16;;;;;;;11.43;6.23;;;25.60;39.50;;;;;;5081058;28;20422;-66
2020/12/09 08:35:49;;;;;;;7.63;6.50;;;25.60;39.20;;;;;;5070313;28;20201;-64
2020/12/09 08:38:27;;;;;;;9.73;6.60;;;25.60;38.80;;;;;;5088180;28;20452;-64
2020/12/09 08:40:58;;;;;;;6.90;6.20;;;25.50;38.20;;;;;;5089143;28;20415;-65
2020/12/09 08:43:25;;;;;;;8.93;6.10;;;25.40;38.00;;;;;;5089057;28;20470;-64
2020/12/09 08:45:52;;;;;;;7.57;6.60;;;25.30;38.00;;;;;;5087260;28;20784;-65
2020/12/09 08:48:19;;;;;;;9.57;5.90;;;25.30;38.50;;;;;;5072655;28;20434;-63
2020/12/09 08:50:46;;;;;;;6.83;5.80;;;25.30;38.30;;;;;;5068248;28;20781;-65
2020/12/09 08:53:12;;;;;;;6.87;5.97;;;25.30;38.40;;;;;;5069000;28;20429;-64
2020/12/09 08:55:37;;;;;;;6.43;5.40;;;25.30;38.20;;;;;;5069942;28;20413;-64
2020/12/09 08:58:03;;;;;;;6.00;5.40;;;25.20;38.10;;;;;;5067856;28;20777;-64
2020/12/09 09:00:29;;;;;;;7.57;5.90;;;25.20;38.10;;;;;;5070140;28;20222;-64
2020/12/09 09:02:56;;;;;;;6.10;5.53;;;25.20;37.80;;;;;;5069388;28;20218;-65
2020/12/09 09:05:22;;;;;;;7.13;6.27;;;25.20;38.20;;;;;;5070088;28;20806;-65
2020/12/09 09:07:47;;;;;;;7.10;6.40;;;25.20;38.20;;;;;;5069613;28;20428;-65
2020/12/09 09:10:13;;;;;;;7.23;6.00;;;25.10;38.60;;;;;;5070531;28;20176;-66
2020/12/09 09:12:39;;;;;;;5.77;5.27;;;25.10;37.80;;;;;;5069026;28;20207;-66
2020/12/09 09:15:05;;;;;;;6.70;6.10;;;25.10;37.60;;;;;;5069191;28;20684;-66
2020/12/09 09:17:30;;;;;;;7.33;6.53;;;25.10;37.60;;;;;;5069027;28;20355;-66
2020/12/09 09:19:58;;;;;;;8.13;7.40;;;25.00;37.80;;;;;;5069516;28;20192;-67
2020/12/09 09:22:24;;;;;;;7.47;6.87;;;25.00;37.60;;;;;;5066965;28;20274;-66
2020/12/09 09:24:50;;;;;;;7.43;6.63;;;25.00;37.50;;;;;;5069307;28;20451;-66
2020/12/09 09:27:15;;;;;;;7.70;7.00;;;25.00;37.60;;;;;;5068603;28;20899;-67
2020/12/09 09:29:41;;;;;;;13.30;7.13;;;25.00;37.60;;;;;;5067715;28;20768;-68
2020/12/09 09:32:08;;;;;;;14.50;6.97;;;25.00;39.50;;;;;;5070707;28;20271;-65
2020/12/09 09:34:34;;;;;;;9.67;8.00;;;25.00;38.90;;;;;;5070877;28;20623;-67
2020/12/09 09:37:00;;;;;;;11.20;7.57;;;25.00;38.90;;;;;;5068332;28;20420;-67
2020/12/09 09:39:26;;;;;;;8.60;6.50;;;24.90;38.90;;;;;;5068710;28;20182;-67
2020/12/09 09:41:56;;;;;;;8.77;6.30;;;24.90;38.40;;;;;;5068673;28;20459;-66
2020/12/09 09:44:23;;;;;;;14.77;9.70;;;24.80;40.00;;;;;;5087939;28;20195;-68
2020/12/09 09:46:48;;;;;;;14.10;9.30;;;24.70;38.70;;;;;;5088395;28;20444;-68
2020/12/09 09:49:14;;;;;;;16.80;10.30;;;24.70;38.70;;;;;;5090627;28;20516;-67
2020/12/09 09:51:40;;;;;;;13.03;8.93;;;24.70;38.50;;;;;;5074436;28;20488;-67
2020/12/09 09:54:05;;;;;;;9.97;8.67;;;24.70;38.40;;;;;;5070916;28;20183;-67
2020/12/09 09:56:31;;;;;;;12.17;8.20;;;24.70;38.60;;;;;;5070436;28;20249;-67
2020/12/09 09:58:56;;;;;;;15.83;11.47;;;24.80;38.30;;;;;;5069733;28;20226;-66
2020/12/09 10:01:22;;;;;;;11.63;9.40;;;24.80;40.20;;;;;;5070574;28;20219;-66
2020/12/09 10:03:48;;;;;;;12.23;10.00;;;24.90;39.50;;;;;;5087851;28;20234;-68
2020/12/09 10:06:13;;;;;;;9.97;8.70;;;24.90;39.40;;;;;;5090443;28;20249;-67
2020/12/09 10:08:39;;;;;;;10.23;7.70;;;25.00;39.00;;;;;;5090480;28;20191;-67
2020/12/09 10:11:05;;;;;;;11.20;8.67;;;25.10;38.90;;;;;;5090529;28;20232;-69
2020/12/09 10:13:31;;;;;;;10.47;7.70;;;25.10;38.60;;;;;;5090373;28;20184;-68
2020/12/09 10:15:57;;;;;;;8.83;6.67;;;25.10;38.60;;;;;;5089948;28;20432;-68
2020/12/09 10:18:23;;;;;;;8.63;7.57;;;25.20;38.80;;;;;;5089636;28;20573;-69
2020/12/09 10:20:48;;;;;;;9.33;7.20;;;25.20;38.60;;;;;;5089859;28;20921;-69
2020/12/09 10:23:14;;;;;;;7.43;6.67;;;25.20;38.50;;;;;;5090307;28;20244;-71
2020/12/09 10:25:40;;;;;;;7.20;5.87;;;25.20;38.20;;;;;;5089027;28;20285;-71
2020/12/09 10:28:05;;;;;;;8.93;6.90;;;25.20;38.30;;;;;;5084444;28;20188;-71
2020/12/09 10:30:31;;;;;;;7.07;6.23;;;25.20;38.10;;;;;;5075292;28;20189;-69
2020/12/09 10:32:57;;;;;;;6.63;6.07;;;25.20;38.00;;;;;;5070160;28;20654;-67
2020/12/09 10:35:22;;;;;;;7.83;7.10;;;25.20;37.90;;;;;;5068888;28;20188;-68
2020/12/09 10:37:48;;;;;;;7.00;6.30;;;25.20;37.80;;;;;;5069792;28;20188;-68
2020/12/09 10:40:14;;;;;;;6.80;6.10;;;25.20;37.70;;;;;;5070128;28;20184;-67
2020/12/09 10:42:39;;;;;;;7.80;6.47;;;25.20;37.80;;;;;;5069394;28;20208;-65
2020/12/09 10:45:06;;;;;;;6.37;5.87;;;25.10;37.60;;;;;;5069467;28;20183;-66
2020/12/09 10:47:32;;;;;;;7.17;6.10;;;25.10;37.60;;;;;;5069669;28;20670;-67
2020/12/09 10:49:58;;;;;;;7.33;5.70;;;25.10;37.60;;;;;;5069244;28;20437;-66
2020/12/09 10:52:26;;;;;;;6.20;5.00;;;25.00;37.40;;;;;;5069474;28;20550;-69
2020/12/09 10:54:51;;;;;;;6.43;5.63;;;25.00;37.80;;;;;;5069938;28;20404;-69
2020/12/09 10:57:17;;;;;;;5.90;5.30;;;24.90;37.50;;;;;;5067074;28;20455;-68
2020/12/09 10:59:43;;;;;;;5.93;5.37;;;24.90;37.50;;;;;;5069614;28;20212;-67
2020/12/09 11:02:09;;;;;;;5.33;4.87;;;24.90;37.60;;;;;;5068989;28;20482;-68
2020/12/09 11:04:35;;;;;;;6.60;6.00;;;24.90;37.60;;;;;;5069454;28;20186;-68
2020/12/09 11:07:08;;;;;;;5.97;5.47;;;24.90;37.80;;;;;;5069464;28;20413;-67
2020/12/09 11:09:34;;;;;;;6.50;5.43;;;24.80;37.50;;;;;;5069798;28;20182;-69
2020/12/09 11:12:00;;;;;;;6.23;5.63;;;24.80;38.10;;;;;;5068886;28;20413;-69
2020/12/09 11:14:26;;;;;;;5.93;5.00;;;24.70;37.70;;;;;;5069385;28;20480;-70
2020/12/09 11:16:51;;;;;;;6.43;5.40;;;24.60;37.60;;;;;;5069293;28;20181;-70
2020/12/09 11:19:17;;;;;;;6.73;5.77;;;24.60;37.50;;;;;;5067529;28;20212;-69
2020/12/09 11:21:44;;;;;;;6.10;5.50;;;24.50;37.40;;;;;;5069123;28;20278;-70
2020/12/09 11:24:10;;;;;;;7.70;6.90;;;24.40;37.40;;;;;;5069684;28;20173;-69
2020/12/09 11:26:35;;;;;;;8.47;7.67;;;24.30;37.30;;;;;;5068541;28;20502;-68
2020/12/09 11:29:01;;;;;;;8.23;7.53;;;24.30;37.20;;;;;;5069151;28;20639;-69
2020/12/09 11:31:27;;;;;;;9.20;8.30;;;24.20;37.70;;;;;;5069062;28;20640;-70
2020/12/09 11:33:53;;;;;;;8.70;7.83;;;24.10;37.00;;;;;;5069090;28;20189;-70
2020/12/09 11:36:23;;;;;;;8.70;7.90;;;24.10;37.00;;;;;;5075076;28;20226;-70
2020/12/09 11:38:49;;;;;;;8.80;8.00;;;24.00;36.80;;;;;;5089513;28;20418;-69
2020/12/09 11:41:14;;;;;;;8.73;7.83;;;24.00;36.80;;;;;;5089492;28;20490;-68
2020/12/09 11:43:44;;;;;;;8.80;7.80;;;24.10;37.40;;;;;;5089436;28;20218;-71
2020/12/09 11:46:10;;;;;;;8.27;7.50;;;24.10;37.50;;;;;;5089127;28;20539;-72
2020/12/09 11:48:37;;;;;;;7.60;6.77;;;24.20;37.80;;;;;;5087616;28;20852;-72
2020/12/09 11:51:03;;;;;;;8.17;7.37;;;24.20;38.00;;;;;;5085913;28;20475;-71
2020/12/09 11:53:29;;;;;;;7.13;6.30;;;24.30;37.70;;;;;;5088193;28;20427;-70
2020/12/09 11:55:54;;;;;;;6.70;6.13;;;24.40;37.90;;;;;;5082418;28;20433;-72
2020/12/09 11:58:20;;;;;;;7.20;6.50;;;24.40;37.60;;;;;;5068738;28;20539;-70
2020/12/09 12:00:46;;;;;;;12.47;10.83;;;24.50;37.70;;;;;;5068908;28;20187;-72
2020/12/09 12:03:11;;;;;;;10.10;8.50;;;24.50;37.50;;;;;;5065932;28;20669;-69
2020/12/09 12:05:40;;;;;;;9.10;8.20;;;24.60;37.40;;;;;;5077145;28;20180;-70
2020/12/09 12:08:06;;;;;;;8.43;7.60;;;24.60;37.40;;;;;;5087909;28;20186;-69
2020/12/09 12:10:33;;;;;;;8.93;8.10;;;24.60;37.60;;;;;;5091746;28;20501;-69
2020/12/09 12:12:59;;;;;;;8.00;7.20;;;24.60;37.30;;;;;;5092427;28;20506;-70
2020/12/09 12:15:24;;;;;;;8.77;7.97;;;24.70;37.60;;;;;;5077131;28;20490;-71
2020/12/09 12:17:50;;;;;;;8.53;7.50;;;24.70;37.40;;;;;;5072006;28;20515;-72
2020/12/09 12:20:16;;;;;;;7.00;6.40;;;24.70;37.80;;;;;;5072191;28;20304;-71
2020/12/09 12:22:41;;;;;;;7.37;6.77;;;24.70;37.40;;;;;;5070769;28;20240;-74
2020/12/09 12:25:07;;;;;;;7.47;6.77;;;24.70;38.40;;;;;;5072588;28;21027;-71
2020/12/09 12:27:33;;;;;;;7.80;6.90;;;24.60;37.40;;;;;;5071783;28;20182;-72
2020/12/09 12:29:58;;;;;;;9.77;6.30;;;24.60;37.20;;;;;;5071347;28;20196;-74
2020/12/09 12:32:24;;;;;;;7.50;6.33;;;24.60;37.30;;;;;;5075540;28;20653;-72
2020/12/09 12:34:49;;;;;;;7.20;6.60;;;24.60;37.40;;;;;;5084102;28;20218;-73
2020/12/09 12:37:16;;;;;;;5.30;4.90;;;24.70;37.80;;;;;;5072186;28;20187;-74
2020/12/09 12:39:42;;;;;;;5.50;5.00;;;25.00;37.80;;;;;;5070356;28;20192;-73
2020/12/09 12:42:07;;;;;;;5.80;5.30;;;25.40;37.10;;;;;;5071635;28;20483;-72
2020/12/09 12:44:33;;;;;;;9.43;8.47;;;25.50;36.50;;;;;;5071679;28;20238;-68